createdAt,value
2023-04-08T00:00:15.757Z,6.63
2023-04-08T00:02:43.483Z,6.00
2023-04-08T00:05:11.668Z,5.88
2023-04-08T00:07:39.199Z,6.45
2023-04-08T00:10:09.068Z,6.50
2023-04-08T00:12:36.644Z,6.40
2023-04-08T00:15:04.284Z,6.05
2023-04-08T00:17:31.814Z,6.55
2023-04-08T00:19:59.332Z,5.82
2023-04-08T00:22:27.014Z,6.20
2023-04-08T00:24:54.560Z,6.03
2023-04-08T00:27:25.196Z,5.20
2023-04-08T00:29:52.763Z,5.70
2023-04-08T00:32:20.309Z,5.65
2023-04-08T00:34:47.825Z,5.63
2023-04-08T00:37:15.557Z,6.30
2023-04-08T00:39:43.112Z,5.70
2023-04-08T00:42:10.728Z,5.32
2023-04-08T00:44:39.586Z,6.07
2023-04-08T00:47:07.154Z,6.78
2023-04-08T00:49:34.685Z,6.07
2023-04-08T00:52:03.040Z,6.43
2023-04-08T00:54:31.572Z,6.05
2023-04-08T00:57:00.064Z,6.03
2023-04-08T00:59:27.897Z,6.03
2023-04-08T01:02:00.655Z,6.03
2023-04-08T01:04:31.047Z,5.57
2023-04-08T01:07:01.419Z,6.38
2023-04-08T01:09:31.004Z,5.78
2023-04-08T01:11:59.412Z,5.72
2023-04-08T01:14:28.366Z,6.47
2023-04-08T01:16:57.989Z,5.70
2023-04-08T01:19:28.115Z,5.30
2023-04-08T01:21:56.101Z,6.32
2023-04-08T01:24:27.348Z,5.38
2023-04-08T01:26:57.274Z,7.00
2023-04-08T01:29:25.447Z,6.18
2023-04-08T01:31:54.315Z,6.72
2023-04-08T01:34:22.213Z,6.72
2023-04-08T01:36:50.758Z,5.88
2023-04-08T01:39:18.946Z,5.60
2023-04-08T01:41:47.181Z,6.20
2023-04-08T01:44:17.549Z,7.35
2023-04-08T01:46:45.168Z,6.60
2023-04-08T01:49:13.170Z,7.10
2023-04-08T01:51:40.767Z,6.57
2023-04-08T01:54:08.321Z,6.82
2023-04-08T01:56:38.440Z,5.93
2023-04-08T01:59:08.776Z,6.28
2023-04-08T02:01:38.234Z,6.30
2023-04-08T02:04:06.061Z,6.88
2023-04-08T02:06:34.162Z,6.25
2023-04-08T02:09:01.880Z,6.75
2023-04-08T02:11:29.503Z,6.05
2023-04-08T02:13:57.201Z,6.22
2023-04-08T02:16:26.540Z,5.93
2023-04-08T02:18:58.205Z,6.05
2023-04-08T02:21:28.940Z,5.25
2023-04-08T02:23:56.795Z,6.60
2023-04-08T02:26:25.719Z,5.75
2023-04-08T02:28:53.705Z,5.68
2023-04-08T02:31:21.785Z,6.25
2023-04-08T02:33:50.490Z,5.40
2023-04-08T02:36:20.365Z,6.13
2023-04-08T02:38:49.406Z,6.55
2023-04-08T02:41:17.179Z,6.18
2023-04-08T02:43:44.682Z,6.80
2023-04-08T02:46:12.753Z,6.32
2023-04-08T02:48:40.386Z,6.57
2023-04-08T02:51:08.355Z,6.50
2023-04-08T02:53:37.263Z,7.35
2023-04-08T02:56:04.853Z,6.82
2023-04-08T02:58:32.474Z,6.88
2023-04-08T03:01:02.120Z,7.80
2023-04-08T03:03:30.657Z,7.00
2023-04-08T03:05:58.698Z,6.88
2023-04-08T03:08:26.444Z,6.10
2023-04-08T03:10:55.490Z,6.75
2023-04-08T03:13:23.049Z,6.20
2023-04-08T03:15:50.616Z,5.88
2023-04-08T03:18:18.187Z,5.15
2023-04-08T03:20:45.977Z,6.38
2023-04-08T03:23:13.435Z,5.90
2023-04-08T03:25:41.002Z,5.65
2023-04-08T03:28:10.981Z,5.72
2023-04-08T03:30:38.715Z,5.57
2023-04-08T03:33:08.200Z,4.88
2023-04-08T03:35:35.967Z,5.43
2023-04-08T03:38:03.443Z,5.60
2023-04-08T03:40:31.238Z,5.47
2023-04-08T03:42:58.782Z,5.07
2023-04-08T03:45:27.705Z,6.72
2023-04-08T03:47:55.526Z,6.07
2023-04-08T03:50:23.103Z,6.57
2023-04-08T03:52:50.641Z,6.55
2023-04-08T03:55:18.467Z,6.70
2023-04-08T03:57:46.183Z,6.07
2023-04-08T04:00:14.298Z,6.88
2023-04-08T04:02:43.602Z,6.57
2023-04-08T04:05:11.135Z,6.22
2023-04-08T04:07:38.617Z,5.85
2023-04-08T04:10:06.948Z,7.13
2023-04-08T04:12:34.600Z,6.10
2023-04-08T04:15:02.090Z,6.55
2023-04-08T04:17:29.842Z,6.28
2023-04-08T04:20:00.811Z,6.07
2023-04-08T04:22:28.333Z,5.90
2023-04-08T04:24:55.897Z,5.47
2023-04-08T04:27:23.404Z,5.95
2023-04-08T04:29:50.937Z,7.32
2023-04-08T04:32:19.465Z,7.28
2023-04-08T04:34:47.009Z,6.20
2023-04-08T04:37:15.888Z,5.97
2023-04-08T04:39:43.395Z,6.43
2023-04-08T04:42:11.092Z,6.75
2023-04-08T04:44:38.609Z,6.18
2023-04-08T04:47:06.287Z,6.35
2023-04-08T04:49:33.825Z,6.38
2023-04-08T04:52:01.525Z,7.15
2023-04-08T04:54:30.713Z,5.95
2023-04-08T04:56:59.509Z,6.32
2023-04-08T04:59:27.076Z,6.43
2023-04-08T05:01:58.719Z,6.10
2023-04-08T05:04:26.733Z,6.10
2023-04-08T05:06:54.250Z,5.63
2023-04-08T05:09:21.771Z,6.07
2023-04-08T05:11:51.497Z,7.88
2023-04-08T05:14:19.013Z,6.57
2023-04-08T05:16:46.720Z,5.53
2023-04-08T05:19:14.260Z,5.70
2023-04-08T05:21:41.843Z,6.50
2023-04-08T05:24:09.581Z,6.50
2023-04-08T05:26:38.251Z,6.18
2023-04-08T05:29:07.187Z,5.28
2023-04-08T05:31:34.775Z,5.70
2023-04-08T05:34:02.340Z,6.80
2023-04-08T05:36:29.836Z,5.55
2023-04-08T05:38:57.679Z,5.63
2023-04-08T05:41:25.196Z,6.18
2023-04-08T05:43:52.730Z,5.82
2023-04-08T05:46:21.682Z,6.65
2023-04-08T05:48:49.439Z,6.10
2023-04-08T05:51:17.934Z,6.47
2023-04-08T05:53:46.354Z,5.50
2023-04-08T05:56:13.995Z,5.68
2023-04-08T05:58:41.466Z,6.47
2023-04-08T06:01:09.038Z,5.45
2023-04-08T06:03:38.771Z,4.82
2023-04-08T06:06:10.493Z,4.95
2023-04-08T06:08:38.090Z,4.40
2023-04-08T06:11:06.277Z,5.63
2023-04-08T06:13:33.889Z,5.05
2023-04-08T06:16:10.906Z,5.00
2023-04-08T06:18:39.836Z,4.85
2023-04-08T06:21:07.673Z,5.22
2023-04-08T06:23:35.384Z,5.18
2023-04-08T06:26:03.398Z,4.75
2023-04-08T06:28:31.244Z,5.05
2023-04-08T06:30:58.811Z,5.78
2023-04-08T06:33:26.484Z,4.72
2023-04-08T06:36:02.234Z,5.38
2023-04-08T06:38:29.827Z,4.75
2023-04-08T06:40:57.511Z,4.45
2023-04-08T06:43:25.169Z,4.97
2023-04-08T06:45:53.310Z,5.43
2023-04-08T06:48:23.397Z,4.93
2023-04-08T06:50:50.938Z,5.03
2023-04-08T06:53:19.900Z,5.80
2023-04-08T06:55:48.363Z,5.72
2023-04-08T06:58:15.939Z,5.25
2023-04-08T07:00:43.833Z,5.90
2023-04-08T07:03:11.991Z,4.85
2023-04-08T07:05:39.970Z,4.38
2023-04-08T07:08:07.530Z,4.90
2023-04-08T07:10:37.776Z,5.93
2023-04-08T07:13:05.832Z,4.85
2023-04-08T07:15:33.444Z,5.28
2023-04-08T07:18:01.245Z,5.55
2023-04-08T07:20:32.201Z,4.65
2023-04-08T07:23:00.036Z,4.15
2023-04-08T07:25:27.558Z,6.75
2023-04-08T07:28:04.366Z,4.57
2023-04-08T07:30:32.091Z,3.58
2023-04-08T07:33:01.109Z,4.97
2023-04-08T07:35:29.230Z,3.35
2023-04-08T07:37:57.822Z,4.57
2023-04-08T07:40:25.404Z,3.40
2023-04-08T07:42:53.657Z,3.75
2023-04-08T07:45:22.611Z,4.18
2023-04-08T07:47:51.604Z,3.78
2023-04-08T07:50:19.428Z,3.53
2023-04-08T07:52:46.974Z,3.47
2023-04-08T07:55:14.702Z,3.50
2023-04-08T07:57:42.459Z,2.90
2023-04-08T08:00:12.166Z,2.97
2023-04-08T08:02:41.093Z,3.15
2023-04-08T08:05:11.842Z,2.63
2023-04-08T08:07:41.933Z,2.97
2023-04-08T08:10:10.040Z,2.88
2023-04-08T08:12:37.687Z,4.35
2023-04-08T08:15:05.710Z,3.50
2023-04-08T08:17:33.924Z,2.30
2023-04-08T08:20:04.955Z,3.10
2023-04-08T08:22:32.436Z,2.63
2023-04-08T08:25:00.342Z,3.38
2023-04-08T08:27:28.025Z,2.38
2023-04-08T08:29:55.497Z,3.25
2023-04-08T08:32:23.053Z,2.45
2023-04-08T08:34:50.625Z,2.75
2023-04-08T08:37:19.480Z,2.15
2023-04-08T08:39:49.733Z,2.35
2023-04-08T08:42:21.755Z,2.42
2023-04-08T08:44:49.392Z,2.60
2023-04-08T08:47:17.314Z,2.15
2023-04-08T08:49:45.117Z,2.25
2023-04-08T08:52:12.748Z,2.10
2023-04-08T08:54:41.577Z,2.50
2023-04-08T08:57:22.945Z,2.20
2023-04-08T08:59:50.499Z,2.20
2023-04-08T09:02:25.952Z,2.10
2023-04-08T09:05:00.371Z,2.30
2023-04-08T09:07:31.970Z,2.47
2023-04-08T09:10:01.093Z,3.15
2023-04-08T09:12:29.227Z,2.85
2023-04-08T09:15:06.656Z,2.35
2023-04-08T09:17:35.294Z,2.92
2023-04-08T09:20:10.111Z,2.50
2023-04-08T09:22:55.936Z,2.60
2023-04-08T09:25:28.830Z,2.28
2023-04-08T09:27:56.547Z,3.07
2023-04-08T09:30:25.877Z,2.30
2023-04-08T09:32:56.000Z,2.35
2023-04-08T09:35:24.063Z,3.15
2023-04-08T09:37:51.721Z,2.45
2023-04-08T09:40:19.455Z,2.72
2023-04-08T09:42:52.436Z,2.72
2023-04-08T09:45:20.529Z,2.97
2023-04-08T09:48:00.385Z,2.10
2023-04-08T09:50:29.695Z,2.28
2023-04-08T09:53:01.761Z,2.30
2023-04-08T09:55:32.451Z,1.98
2023-04-08T09:58:08.063Z,2.40
2023-04-08T10:00:38.848Z,2.70
2023-04-08T10:03:11.807Z,2.83
2023-04-08T10:05:42.819Z,3.08
2023-04-08T10:08:13.911Z,3.13
2023-04-08T10:10:46.182Z,2.75
2023-04-08T10:13:18.920Z,2.47
2023-04-08T10:15:49.125Z,3.03
2023-04-08T10:18:33.318Z,2.70
2023-04-08T10:21:03.035Z,2.47
2023-04-08T10:23:49.056Z,3.40
2023-04-08T10:26:31.805Z,2.85
2023-04-08T10:29:14.271Z,2.65
2023-04-08T10:31:46.952Z,2.78
2023-04-08T10:34:17.178Z,3.25
2023-04-08T10:36:45.159Z,2.90
2023-04-08T10:39:13.355Z,3.75
2023-04-08T10:41:43.442Z,2.78
2023-04-08T10:44:17.056Z,2.42
2023-04-08T10:46:46.123Z,2.95
2023-04-08T10:49:13.732Z,2.67
2023-04-08T10:51:42.185Z,3.17
2023-04-08T10:54:10.732Z,4.35
2023-04-08T10:56:44.569Z,3.10
2023-04-08T10:59:12.713Z,3.47
2023-04-08T11:01:42.069Z,3.58
2023-04-08T11:04:14.527Z,2.75
2023-04-08T11:06:43.219Z,3.05
2023-04-08T11:09:10.973Z,3.58
2023-04-08T11:11:39.513Z,3.42
2023-04-08T11:14:07.215Z,3.58
2023-04-08T11:16:35.428Z,2.88
2023-04-08T11:19:03.772Z,2.75
2023-04-08T11:21:33.244Z,2.50
2023-04-08T11:24:00.783Z,3.10
2023-04-08T11:26:28.522Z,4.18
2023-04-08T11:28:57.563Z,3.00
2023-04-08T11:31:25.260Z,2.65
2023-04-08T11:33:54.421Z,2.25
2023-04-08T11:36:22.647Z,2.17
2023-04-08T11:38:51.607Z,2.50
2023-04-08T11:41:19.188Z,2.20
2023-04-08T11:43:53.670Z,2.35
2023-04-08T11:46:21.352Z,2.42
2023-04-08T11:48:58.894Z,2.30
2023-04-08T11:51:27.240Z,2.60
2023-04-08T11:53:56.759Z,2.28
2023-04-08T11:56:24.797Z,2.70
2023-04-08T11:58:52.891Z,2.28
2023-04-08T12:01:20.996Z,2.20
2023-04-08T12:04:10.745Z,2.53
2023-04-08T12:06:38.533Z,2.60
2023-04-08T12:09:08.021Z,2.33
2023-04-08T12:11:35.885Z,2.38
2023-04-08T12:14:03.363Z,2.15
2023-04-08T12:16:33.853Z,3.72
2023-04-08T12:19:01.714Z,2.20
2023-04-08T12:21:29.325Z,2.20
2023-04-08T12:23:57.011Z,2.28
2023-04-08T12:26:27.191Z,3.33
2023-04-08T12:28:54.898Z,1.60
2023-04-08T12:31:23.370Z,2.10
2023-04-08T12:33:51.153Z,1.85
2023-04-08T12:36:19.034Z,1.75
2023-04-08T12:38:47.210Z,2.17
2023-04-08T12:41:17.446Z,2.42
2023-04-08T12:43:46.286Z,2.33
2023-04-08T12:46:14.135Z,2.13
2023-04-08T12:48:43.812Z,1.85
2023-04-08T12:51:12.224Z,2.78
2023-04-08T12:53:39.741Z,2.25
2023-04-08T12:56:08.461Z,2.42
2023-04-08T12:58:36.171Z,1.75
2023-04-08T13:01:05.355Z,2.13
2023-04-08T13:03:35.116Z,2.03
2023-04-08T13:06:02.819Z,1.90
2023-04-08T13:08:30.384Z,1.92
2023-04-08T13:10:58.309Z,2.03
2023-04-08T13:13:26.776Z,2.13
2023-04-08T13:15:54.479Z,2.65
2023-04-08T13:18:23.518Z,2.97
2023-04-08T13:20:51.008Z,2.10
2023-04-08T13:23:18.880Z,2.38
2023-04-08T13:25:46.604Z,2.20
2023-04-08T13:28:16.319Z,2.22
2023-04-08T13:30:46.932Z,2.42
2023-04-08T13:33:14.722Z,2.20
2023-04-08T13:35:43.631Z,2.20
2023-04-08T13:38:11.457Z,2.40
2023-04-08T13:40:39.013Z,2.25
2023-04-08T13:43:06.600Z,3.15
2023-04-08T13:45:34.246Z,2.50
2023-04-08T13:48:03.096Z,2.53
2023-04-08T13:50:32.786Z,3.58
2023-04-08T13:53:05.001Z,2.88
2023-04-08T13:55:32.579Z,3.10
2023-04-08T13:58:03.550Z,2.88
2023-04-08T14:00:34.253Z,2.38
2023-04-08T14:03:01.946Z,2.72
2023-04-08T14:05:29.497Z,2.95
2023-04-08T14:07:57.037Z,2.50
2023-04-08T14:10:32.212Z,2.33
2023-04-08T14:13:00.026Z,2.90
2023-04-08T14:15:42.118Z,2.13
2023-04-08T14:18:13.514Z,2.05
2023-04-08T14:20:41.433Z,3.47
2023-04-08T14:23:09.201Z,2.38
2023-04-08T14:25:38.097Z,4.43
2023-04-08T14:28:06.283Z,3.03
2023-04-08T14:30:39.224Z,2.35
2023-04-08T14:33:07.170Z,3.00
2023-04-08T14:35:37.236Z,2.80
2023-04-08T14:38:07.130Z,3.50
2023-04-08T14:40:36.480Z,3.38
2023-04-08T14:43:06.730Z,2.90
2023-04-08T14:45:37.395Z,3.00
2023-04-08T14:48:05.262Z,3.00
2023-04-08T14:50:32.860Z,3.50
2023-04-08T14:53:02.547Z,4.35
2023-04-08T14:55:32.263Z,4.15
2023-04-08T14:58:01.045Z,3.50
2023-04-08T15:00:30.482Z,3.53
2023-04-08T15:02:58.386Z,3.08
2023-04-08T15:05:26.122Z,3.22
2023-04-08T15:07:54.488Z,3.22
2023-04-08T15:10:22.222Z,2.90
2023-04-08T15:12:49.727Z,3.97
2023-04-08T15:15:17.313Z,3.40
2023-04-08T15:17:46.547Z,3.78
2023-04-08T15:20:14.522Z,2.90
2023-04-08T15:22:42.255Z,3.83
2023-04-08T15:25:10.626Z,2.70
2023-04-08T15:27:38.784Z,3.50
2023-04-08T15:30:07.914Z,2.80
2023-04-08T15:32:35.757Z,2.78
2023-04-08T15:35:04.839Z,3.28
2023-04-08T15:37:32.443Z,3.22
2023-04-08T15:39:59.939Z,3.63
2023-04-08T15:42:27.417Z,3.80
2023-04-08T15:44:54.980Z,4.22
2023-04-08T15:47:22.678Z,3.97
2023-04-08T15:49:52.959Z,4.15
2023-04-08T15:52:21.833Z,3.50
2023-04-08T15:54:49.356Z,3.60
2023-04-08T15:57:17.280Z,3.83
2023-04-08T15:59:44.881Z,3.80
2023-04-08T16:02:12.540Z,3.88
2023-04-08T16:04:40.144Z,4.80
2023-04-08T16:07:07.749Z,3.92
2023-04-08T16:09:36.627Z,3.83
2023-04-08T16:12:04.260Z,3.55
2023-04-08T16:14:31.828Z,4.07
2023-04-08T16:16:59.369Z,3.50
2023-04-08T16:19:27.331Z,4.10
2023-04-08T16:21:55.291Z,4.03
2023-04-08T16:24:23.055Z,3.72
2023-04-08T16:26:53.987Z,4.32
2023-04-08T16:29:22.767Z,4.43
2023-04-08T16:31:52.269Z,3.65
2023-04-08T16:34:20.897Z,3.78
2023-04-08T16:36:48.480Z,4.07
2023-04-08T16:39:16.020Z,3.50
2023-04-08T16:41:57.560Z,3.70
2023-04-08T16:44:28.730Z,4.50
2023-04-08T16:46:57.858Z,3.60
2023-04-08T16:49:25.814Z,3.47
2023-04-08T16:51:58.583Z,3.85
2023-04-08T16:54:26.412Z,4.70
2023-04-08T16:56:54.093Z,4.40
2023-04-08T16:59:21.887Z,4.05
2023-04-08T17:01:54.181Z,4.22
2023-04-08T17:04:21.948Z,5.45
2023-04-08T17:06:49.763Z,4.35
2023-04-08T17:09:19.626Z,5.75
2023-04-08T17:11:47.275Z,6.70
2023-04-08T17:14:15.601Z,6.05
2023-04-08T17:16:43.342Z,6.35
2023-04-08T17:19:28.322Z,6.22
2023-04-08T17:21:55.842Z,6.43
2023-04-08T17:24:25.125Z,7.03
2023-04-08T17:26:57.005Z,6.38
2023-04-08T17:29:27.649Z,7.70
2023-04-08T17:31:58.208Z,6.95
2023-04-08T17:34:27.595Z,5.78
2023-04-08T17:36:55.274Z,6.85
2023-04-08T17:39:26.036Z,9.00
2023-04-08T17:41:57.026Z,6.50
2023-04-08T17:44:30.040Z,6.00
2023-04-08T17:47:00.706Z,6.88
2023-04-08T17:49:30.293Z,6.25
2023-04-08T17:51:57.875Z,6.80
2023-04-08T17:54:25.690Z,6.47
2023-04-08T17:56:56.235Z,6.28
2023-04-08T17:59:29.263Z,7.00
2023-04-08T18:01:57.200Z,5.78
2023-04-08T18:04:33.706Z,6.10
2023-04-08T18:07:05.336Z,5.70
2023-04-08T18:09:36.357Z,6.10
2023-04-08T18:12:04.129Z,5.80
2023-04-08T18:14:33.868Z,5.85
2023-04-08T18:17:03.584Z,6.03
2023-04-08T18:19:31.658Z,5.47
2023-04-08T18:22:01.028Z,5.35
2023-04-08T18:24:29.993Z,5.95
2023-04-08T18:27:08.712Z,5.70
2023-04-08T18:29:38.770Z,5.15
2023-04-08T18:32:06.976Z,5.07
2023-04-08T18:34:37.487Z,7.38
2023-04-08T18:37:10.990Z,6.20
2023-04-08T18:39:41.875Z,7.28
2023-04-08T18:42:14.072Z,6.53
2023-04-08T18:44:45.641Z,9.07
2023-04-08T18:47:13.161Z,8.00
2023-04-08T18:49:40.735Z,7.72
2023-04-08T18:52:08.565Z,8.10
2023-04-08T18:54:37.551Z,8.13
2023-04-08T18:57:06.553Z,8.93
2023-04-08T18:59:35.981Z,7.13
2023-04-08T19:02:04.063Z,8.63
2023-04-08T19:04:34.589Z,7.60
2023-04-08T19:07:02.321Z,8.40
2023-04-08T19:09:29.910Z,9.43
2023-04-08T19:11:57.775Z,8.95
2023-04-08T19:14:26.881Z,8.60
2023-04-08T19:16:54.467Z,7.65
2023-04-08T19:19:26.895Z,9.80
2023-04-08T19:21:56.764Z,8.90
2023-04-08T19:24:24.466Z,9.23
2023-04-08T19:26:59.428Z,9.27
2023-04-08T19:29:32.971Z,9.23
2023-04-08T19:32:04.713Z,9.33
2023-04-08T19:34:37.900Z,8.63
2023-04-08T19:37:06.016Z,10.57
2023-04-08T19:39:33.989Z,8.25
2023-04-08T19:42:02.001Z,8.73
2023-04-08T19:44:33.433Z,8.65
2023-04-08T19:47:05.526Z,8.80
2023-04-08T19:49:35.744Z,8.82
2023-04-08T19:52:05.735Z,9.05
2023-04-08T19:54:33.715Z,8.88
2023-04-08T19:57:01.426Z,8.38
2023-04-08T19:59:40.397Z,8.70
2023-04-08T20:02:11.570Z,7.10
2023-04-08T20:04:45.240Z,9.05
2023-04-08T20:07:13.122Z,7.82
2023-04-08T20:09:43.998Z,7.70
2023-04-08T20:12:12.134Z,6.20
2023-04-08T20:14:42.303Z,7.40
2023-04-08T20:17:12.507Z,6.80
2023-04-08T20:19:43.288Z,6.10
2023-04-08T20:22:10.769Z,6.85
2023-04-08T20:24:42.403Z,6.30
2023-04-08T20:27:10.018Z,6.30
2023-04-08T20:29:39.666Z,6.32
2023-04-08T20:32:07.786Z,6.43
2023-04-08T20:34:36.948Z,5.00
2023-04-08T20:37:05.877Z,7.95
2023-04-08T20:39:33.536Z,5.60
2023-04-08T20:42:01.691Z,5.63
2023-04-08T20:44:29.245Z,5.82
2023-04-08T20:46:59.802Z,5.53
2023-04-08T20:49:29.635Z,7.15
2023-04-08T20:52:09.878Z,7.78
2023-04-08T20:54:37.392Z,6.65
2023-04-08T20:57:05.012Z,7.07
2023-04-08T20:59:33.234Z,7.78
2023-04-08T21:02:01.264Z,6.25
2023-04-08T21:04:29.083Z,6.38
2023-04-08T21:06:56.729Z,6.72
2023-04-08T21:09:25.694Z,9.48
2023-04-08T21:11:53.236Z,8.77
2023-04-08T21:14:26.716Z,10.48
2023-04-08T21:16:54.305Z,7.40
2023-04-08T21:19:21.874Z,5.65
2023-04-08T21:21:49.420Z,5.35
2023-04-08T21:24:17.064Z,5.35
2023-04-08T21:26:45.946Z,5.47
2023-04-08T21:29:13.893Z,5.90
2023-04-08T21:31:43.315Z,4.90
2023-04-08T21:34:11.362Z,6.93
2023-04-08T21:36:38.881Z,5.20
2023-04-08T21:39:06.425Z,4.90
2023-04-08T21:41:33.965Z,5.53
2023-04-08T21:44:02.888Z,4.45
2023-04-08T21:46:30.394Z,7.07
2023-04-08T21:48:57.878Z,5.80
2023-04-08T21:51:26.450Z,6.05
2023-04-08T21:53:54.093Z,6.38
2023-04-08T21:56:22.166Z,4.85
2023-04-08T21:58:49.984Z,5.40
2023-04-08T22:01:19.100Z,6.57
2023-04-08T22:03:46.726Z,6.07
2023-04-08T22:06:25.631Z,6.13
2023-04-08T22:11:26.209Z,6.55
2023-04-08T22:13:53.775Z,5.85
2023-04-08T22:16:22.614Z,6.20
2023-04-08T22:18:50.748Z,5.80
2023-04-08T22:21:19.096Z,5.75
2023-04-08T22:23:46.703Z,6.82
2023-04-08T22:26:15.616Z,8.82
2023-04-08T22:28:43.233Z,6.88
2023-04-08T22:31:11.584Z,6.20
2023-04-08T22:33:40.833Z,6.25
2023-04-08T22:36:08.395Z,6.53
2023-04-08T22:38:35.981Z,7.28
2023-04-08T22:41:03.602Z,6.93
2023-04-08T22:43:31.094Z,8.02
2023-04-08T22:45:58.830Z,6.47
2023-04-08T22:48:26.440Z,6.13
2023-04-08T22:50:55.280Z,5.75
2023-04-08T22:53:22.850Z,8.27
2023-04-08T22:55:50.491Z,9.88
2023-04-08T22:58:18.007Z,8.07
2023-04-08T23:00:45.734Z,10.02
2023-04-08T23:03:13.419Z,6.68
2023-04-08T23:05:40.986Z,7.57
2023-04-08T23:08:09.822Z,5.95
2023-04-08T23:10:37.339Z,5.45
2023-04-08T23:13:05.676Z,7.18
2023-04-08T23:15:33.179Z,5.57
2023-04-08T23:18:00.834Z,6.25
2023-04-08T23:20:28.300Z,6.13
2023-04-08T23:22:55.916Z,5.60
2023-04-08T23:25:24.894Z,5.72
2023-04-08T23:27:52.425Z,6.20
2023-04-08T23:30:19.976Z,5.47
2023-04-08T23:32:47.560Z,7.78
2023-04-08T23:35:16.521Z,6.85
2023-04-08T23:37:44.209Z,5.80
2023-04-08T23:40:12.928Z,6.22
2023-04-08T23:42:41.774Z,6.30
2023-04-08T23:45:09.635Z,7.00
2023-04-08T23:47:37.269Z,6.70
2023-04-08T23:50:05.104Z,7.97
2023-04-08T23:52:32.598Z,7.32
2023-04-08T23:55:00.183Z,6.93
2023-04-08T23:57:27.703Z,6.45
2023-04-08T23:59:56.564Z,6.47
